Troye d'Ariège ULM

FR-0355 · Occitanie, 法国

此METAR来自2022年8月15日 01:00. 最近的
罗盘
风向 的 风向 的 风向 到 风向 270° Troye d'Ariège ULM 11/29
风: 3 kt, 1 beaufort

3 kt

1 kt
改变
0 2.000 4.000 6.000 8.000 10.000
FEW 5.400 ft
SCT 6.800 ft
METAR LFMK 142300Z AUTO 27003KT 240V300 9999 FEW054 SCT068 23/16 Q1010

METAR Troye d'Ariège ULM - FR-0355

Troye d'Ariège ULM是Troye d'Ariège,法国中的小机场。 该机场有一条跑道: 11/29. 该领域的国际民航组织标志是FR-0355.

这份报告是针对2022年8月15日 01:00, 当地时间在Carcassonne Airport进行的。

机场观察

风向为270°,速度为3 kt。 风向在240°和300°之间变化。

可见度为10 km 或者更多。

有几云在5.400 ft的高度 和 疏云,零星散落的云朵在6.800 ft的高度。 没有观察到天花板。

温度和风寒是23 °C。 露点为16 °C,相对湿度为65%。 海平面上的气压为1010 hPa (QNH)。

白天

今天,太阳从07:56升起,在19:23降落。 这适用于Troye d'Ariège ULM,世界夏令时可能有所不同。 当地时间与世界标准时间之间的时差为+2 小时。 夏令时目前正在进行中。

公司介绍

我们没有关于这个机场的公司信息。

体会

到Vliegles.nl去找飞行课程,跳伞和其他飞行体验。 浏览页面,了解Troye d'Ariège ULM附近所有可用的活动。 你也可以使用搜索功能来寻找你所在地附近的特定飞行课程、跳伞或其他飞行体验。

跑道

Id 标题 侧风 逆风 侧风 %
11/29 110°-290° 1 kt 3 kt 34 %

逆风成分最大的方向会被突出显示,并用于横风计算。 这并不一定意味着这个方向在使用。

乌云

5.400 ft FEW 几云
6.800 ft SCT 疏云,零星散落的云朵

温度 & 天气

温度 23 °C
露点 16 °C
相对湿度 65%
Kp-index 0 (0-9)

白天

日出
06:55
中午
13:55
日落
20:55

小工具

你想在你的网站上有一个关于Troye d'Ariège ULM的当前航空天气(METAR)的小部件吗?

</> 显示HTML代码

我们和第三方通过cookies跟踪您在我们网站上的上网行为。如果您继续,我们认为您同意我们的cookie政策。 了解更多